Time;durP1;ratioP1;P1;durP2;ratioP2;P2;SDS_P1;SDS_P2;PMS_P1;PMS_P2;Temp;Humidity;BMP_temperature;BMP_pressure;BME280_temperature;BME280_humidity;BME280_pressure;Samples;Min_cycle;Max_cycle;Signal;HPM_P1;HPM_P2
2022/06/01 00:02:35;;;;;;;10.90;10.20;;;;;;;11.03;97.93;99716.88;10381540;28;20080;-71
2022/06/01 00:07:37;;;;;;;10.50;9.90;;;;;;;11.08;97.43;99721.03;10382400;28;20088;-71
2022/06/01 00:12:39;;;;;;;10.07;9.48;;;;;;;11.06;96.25;99720.22;10364102;28;20057;-71
2022/06/01 00:17:41;;;;;;;11.07;10.48;;;;;;;10.94;96.00;99714.59;10380635;28;20034;-70
2022/06/01 00:22:44;;;;;;;13.38;12.57;;;;;;;10.78;98.11;99716.94;10381420;28;20054;-70
2022/06/01 00:27:45;;;;;;;11.77;11.10;;;;;;;10.76;98.56;99719.63;10379506;28;20056;-70
2022/06/01 00:32:47;;;;;;;11.82;11.13;;;;;;;10.71;98.54;99729.44;10380544;28;20049;-70
2022/06/01 00:37:49;;;;;;;13.52;12.73;;;;;;;10.94;95.94;99736.50;10380525;28;20488;-71
2022/06/01 00:42:53;;;;;;;12.43;11.68;;;;;;;11.05;92.69;99736.91;10380051;28;20423;-70
2022/06/01 00:47:55;;;;;;;13.90;13.00;;;;;;;10.63;96.42;99738.56;10379127;28;20050;-71
2022/06/01 00:53:08;;;;;;;15.70;14.80;;;;;;;10.49;97.51;99731.16;10379017;28;20557;-70
2022/06/01 00:58:14;;;;;;;16.30;15.32;;;;;;;10.47;98.07;99757.50;10379157;28;20501;-70
2022/06/01 01:03:18;;;;;;;17.88;16.73;;;;;;;10.53;95.72;99752.00;10379631;28;20046;-70
2022/06/01 01:08:20;;;;;;;15.48;14.68;;;;;;;10.43;97.17;99755.03;10378885;28;20038;-70
2022/06/01 01:13:23;;;;;;;17.67;16.65;;;;;;;10.41;96.89;99759.50;10378667;28;20422;-71
2022/06/01 01:18:35;;;;;;;17.67;16.63;;;;;;;10.33;97.38;99757.13;10379450;28;20038;-70
2022/06/01 01:24:03;;;;;;;21.20;20.00;;;;;;;10.37;97.37;99757.88;10378798;28;20050;-70
2022/06/01 01:29:09;;;;;;;23.52;22.02;;;;;;;10.26;97.82;99761.72;10378904;28;20550;-70
2022/06/01 01:34:11;;;;;;;21.10;19.90;;;;;;;10.19;97.90;99767.22;10378840;28;20487;-70
2022/06/01 01:39:15;;;;;;;19.38;18.33;;;;;;;10.38;95.31;99773.59;10377747;28;20052;-71
2022/06/01 01:44:21;;;;;;;20.27;19.08;;;;;;;10.40;95.22;99774.38;10377568;28;20057;-70
2022/06/01 01:49:25;;;;;;;20.95;19.33;;;;;;;10.31;95.00;99775.59;10377572;28;20042;-70
2022/06/01 01:54:59;;;;;;;22.58;21.08;;;;;;;10.04;96.53;99760.72;10377016;28;20050;-70
2022/06/01 02:00:19;;;;;;;18.85;17.73;;;;;;;10.17;93.17;99766.41;10378068;28;20050;-70
2022/06/01 02:06:07;;;;;;;21.63;20.20;;;;;;;9.88;96.35;99765.63;10376579;28;20121;-70
2022/06/01 02:16:56;;;;;;;21.40;20.20;;;;;;;10.21;95.37;99771.50;10376519;28;20454;-70
2022/06/01 02:21:59;;;;;;;19.85;18.75;;;;;;;10.28;95.29;99767.78;10375823;28;20463;-70
2022/06/01 02:27:00;;;;;;;20.17;18.98;;;;;;;10.03;96.61;99775.59;10376657;28;20108;-70
2022/06/01 02:32:06;;;;;;;20.45;19.35;;;;;;;10.02;96.79;99778.31;10374938;28;20388;-69
2022/06/01 02:37:09;;;;;;;18.75;17.67;;;;;;;10.09;95.14;99770.16;10376257;28;20046;-67
2022/06/01 02:42:25;;;;;;;21.15;19.50;;;;;;;10.22;93.92;99777.59;10375134;28;20045;-67
2022/06/01 02:47:32;;;;;;;22.20;20.90;;;;;;;9.99;95.93;99783.66;10375154;28;20053;-68
2022/06/01 02:52:34;;;;;;;23.67;22.10;;;;;;;9.77;96.81;99788.75;10375471;28;20049;-68
2022/06/01 02:57:38;;;;;;;22.25;20.80;;;;;;;9.55;98.47;99796.44;10374737;28;20050;-67
2022/06/01 03:02:40;;;;;;;22.77;21.48;;;;;;;9.39;99.55;99792.59;10375102;28;20049;-67
2022/06/01 03:07:42;;;;;;;22.70;21.30;;;;;;;9.45;100.00;99797.63;10374295;28;20042;-67
2022/06/01 03:12:44;;;;;;;21.45;19.95;;;;;;;9.71;97.83;99791.56;10374851;28;20038;-67
2022/06/01 03:17:45;;;;;;;24.88;23.45;;;;;;;9.45;99.64;99801.13;10374278;28;20108;-67
2022/06/01 03:22:47;;;;;;;23.52;21.58;;;;;;;9.43;100.00;99797.69;10374897;28;20419;-67
2022/06/01 03:27:50;;;;;;;22.33;20.77;;;;;;;9.76;98.70;99781.78;10374392;28;20042;-67
2022/06/01 03:32:53;;;;;;;20.75;19.45;;;;;;;9.78;96.98;99780.84;10373798;28;20087;-67
2022/06/01 03:37:57;;;;;;;22.35;20.88;;;;;;;9.72;98.37;99791.50;10373744;28;20107;-68
2022/06/01 03:43:00;;;;;;;22.92;21.52;;;;;;;9.86;97.74;99793.69;10374128;28;20046;-67
2022/06/01 03:48:03;;;;;;;22.70;21.08;;;;;;;9.81;97.17;99801.72;10373697;28;20068;-68
2022/06/01 03:53:05;;;;;;;19.73;18.42;;;;;;;9.89;96.83;99804.09;10373444;28;20076;-67
2022/06/01 03:58:12;;;;;;;20.33;19.02;;;;;;;9.98;96.41;99806.44;10374503;28;20057;-67
2022/06/01 04:03:14;;;;;;;21.15;19.75;;;;;;;9.82;97.87;99806.06;10373424;28;20084;-68
2022/06/01 04:08:16;;;;;;;22.33;20.92;;;;;;;9.91;98.78;99801.41;10374689;28;20431;-67
2022/06/01 04:13:18;;;;;;;21.23;19.92;;;;;;;9.94;99.00;99811.81;10372104;28;20050;-67
2022/06/01 04:18:19;;;;;;;20.80;19.48;;;;;;;10.36;97.18;99806.94;10373025;28;20439;-68
2022/06/01 04:23:21;;;;;;;20.48;19.05;;;;;;;10.65;95.21;99805.91;10372896;28;20049;-67
2022/06/01 04:28:24;;;;;;;18.15;17.05;;;;;;;10.94;93.48;99796.13;10373257;28;20099;-67
2022/06/01 04:33:27;;;;;;;17.75;16.70;;;;;;;11.18;92.79;99799.59;10373592;28;20049;-67
2022/06/01 04:38:30;;;;;;;18.92;17.83;;;;;;;11.09;93.70;99804.28;10380034;28;20427;-67
2022/06/01 04:43:31;;;;;;;16.02;15.05;;;;;;;11.31;92.78;99822.75;10380206;28;20046;-66
2022/06/01 04:48:33;;;;;;;17.80;16.63;;;;;;;11.47;90.37;99822.16;10380522;28;20046;-68
2022/06/01 04:53:34;;;;;;;18.45;17.30;;;;;;;11.20;92.79;99827.56;10379431;28;20077;-68
2022/06/01 04:58:36;;;;;;;16.35;15.35;;;;;;;11.33;93.52;99823.56;10379069;28;20042;-68
2022/06/01 05:03:39;;;;;;;16.58;15.35;;;;;;;11.52;92.41;99810.53;10379291;28;20417;-68
2022/06/01 05:08:41;;;;;;;14.60;13.80;;;;;;;11.74;90.22;99804.44;10379148;28;20041;-68
2022/06/01 05:13:42;;;;;;;14.43;13.63;;;;;;;11.60;89.26;99802.34;10378482;28;20053;-68
2022/06/01 05:18:44;;;;;;;13.73;12.90;;;;;;;11.87;88.71;99805.69;10378153;28;20488;-68
2022/06/01 05:23:45;;;;;;;14.55;13.52;;;;;;;11.90;87.82;99802.91;10378087;28;20094;-68
2022/06/01 05:28:47;;;;;;;12.13;11.20;;;;;;;12.39;85.49;99800.84;10377982;28;20484;-68
2022/06/01 05:33:49;;;;;;;10.80;9.75;;;;;;;12.84;81.24;99808.53;10377648;28;20496;-68
2022/06/01 05:38:50;;;;;;;10.85;10.25;;;;;;;13.74;79.43;99792.94;10377614;28;20037;-69
2022/06/01 05:43:53;;;;;;;7.90;7.30;;;;;;;14.09;73.28;99793.00;10377637;28;20455;-69
2022/06/01 05:48:56;;;;;;;8.10;7.50;;;;;;;14.08;75.09;99808.00;10375910;28;20056;-69
2022/06/01 05:53:57;;;;;;;7.53;6.95;;;;;;;15.18;69.28;99811.16;10377529;28;20049;-70
2022/06/01 05:58:59;;;;;;;5.78;5.38;;;;;;;15.58;66.92;99810.69;10376799;28;20046;-69
2022/06/01 06:04:00;;;;;;;5.30;5.00;;;;;;;15.69;67.69;99804.81;10376881;28;20487;-70
2022/06/01 06:09:06;;;;;;;5.32;5.03;;;;;;;16.40;63.74;99797.13;10376833;28;20439;-69
2022/06/01 06:14:08;;;;;;;5.18;4.80;;;;;;;16.86;61.18;99806.78;10376227;28;20046;-68
2022/06/01 06:19:09;;;;;;;4.13;3.83;;;;;;;16.75;62.94;99807.44;10377017;28;20407;-68
2022/06/01 06:24:15;;;;;;;3.05;2.85;;;;;;;17.42;60.66;99813.00;10375600;28;20050;-69
2022/06/01 06:29:18;;;;;;;2.55;2.35;;;;;;;17.55;57.56;99815.75;10376495;28;20038;-68
2022/06/01 06:34:19;;;;;;;2.28;2.08;;;;;;;17.32;58.95;99820.72;10375822;28;20041;-69
2022/06/01 06:39:21;;;;;;;2.55;2.10;;;;;;;17.54;59.19;99817.56;10375533;28;20042;-69
2022/06/01 06:44:22;;;;;;;4.07;2.40;;;;;;;17.49;60.20;99824.13;10375345;28;20546;-69
2022/06/01 06:49:25;;;;;;;2.72;1.90;;;;;;;17.25;61.04;99826.50;10375371;28;20052;-71
2022/06/01 06:54:27;;;;;;;1.50;1.40;;;;;;;18.17;57.74;99809.97;10374985;28;20054;-68
2022/06/01 06:59:28;;;;;;;1.23;1.13;;;;;;;17.82;54.60;99818.47;10374625;28;20041;-70
2022/06/01 07:04:30;;;;;;;3.10;1.40;;;;;;;17.90;53.17;99817.00;10374404;28;20092;-69
2022/06/01 07:09:32;;;;;;;1.50;1.40;;;;;;;17.97;55.78;99800.63;10375093;28;20399;-69
2022/06/01 07:14:33;;;;;;;1.52;1.42;;;;;;;17.81;55.49;99806.97;10374572;28;20042;-69
2022/06/01 07:19:35;;;;;;;1.33;1.20;;;;;;;17.89;55.11;99803.81;10374596;28;20042;-69
2022/06/01 07:24:36;;;;;;;1.30;1.20;;;;;;;18.15;54.82;99810.94;10375763;28;20108;-69
2022/06/01 07:29:38;;;;;;;1.95;1.20;;;;;;;18.41;54.17;99816.28;10373860;28;20042;-69
2022/06/01 07:34:40;;;;;;;1.95;1.10;;;;;;;18.32;51.83;99807.13;10373876;28;20108;-68
2022/06/01 07:45:02;;;;;;;1.73;1.27;;;;;;;18.35;55.72;99806.06;10371620;28;20507;-68
2022/06/01 07:50:05;;;;;;;2.13;1.20;;;;;;;19.70;52.07;99813.50;10373758;28;20052;-68
2022/06/01 07:55:27;;;;;;;2.55;1.08;;;;;;;19.84;50.17;99816.00;10372076;28;20518;-68
2022/06/01 08:00:31;;;;;;;1.17;0.93;;;;;;;19.74;49.28;99825.63;10374117;28;20106;-70
2022/06/01 08:05:33;;;;;;;3.22;0.90;;;;;;;19.94;48.45;99820.66;10378464;28;20479;-70
2022/06/01 08:10:36;;;;;;;1.23;0.70;;;;;;;19.56;48.38;99817.09;10378944;28;20551;-70
2022/06/01 08:15:47;;;;;;;1.20;0.95;;;;;;;19.24;48.82;99819.44;10379721;28;20077;-68
2022/06/01 08:20:50;;;;;;;0.80;0.80;;;;;;;19.82;49.65;99806.38;10382691;28;20038;-70
2022/06/01 08:25:54;;;;;;;3.80;0.65;;;;;;;20.37;46.47;99813.81;10388564;28;20049;-69
2022/06/01 08:30:55;;;;;;;1.65;0.75;;;;;;;19.97;46.09;99821.28;10380416;28;20042;-69
2022/06/01 08:35:57;;;;;;;1.58;0.85;;;;;;;20.36;45.69;99827.25;10386323;28;20065;-69
2022/06/01 08:41:06;;;;;;;1.00;0.70;;;;;;;20.50;45.85;99837.78;10335017;23;20054;-68
2022/06/01 08:46:09;;;;;;;2.05;0.93;;;;;;;19.93;45.86;99846.47;10315947;28;20109;-68
2022/06/01 08:51:11;;;;;;;2.03;0.77;;;;;;;19.62;44.18;99842.53;10304642;28;20039;-69
2022/06/01 08:56:20;;;;;;;0.93;0.77;;;;;;;20.03;43.03;99843.97;10300925;28;20061;-69
2022/06/01 09:01:52;;;;;;;2.35;0.85;;;;;;;20.44;44.56;99832.84;10299790;28;20039;-69
2022/06/01 09:07:12;;;;;;;1.33;0.73;;;;;;;20.02;41.15;99839.63;10300401;28;20051;-68
2022/06/01 09:12:14;;;;;;;0.63;0.60;;;;;;;19.25;42.92;99854.91;10297361;28;20098;-68
2022/06/01 09:17:16;;;;;;;1.65;0.73;;;;;;;18.99;43.78;99860.28;10298912;28;20109;-69
2022/06/01 09:27:42;;;;;;;1.83;1.10;;;;;;;18.78;47.75;99875.06;10300114;28;20070;-69
2022/06/01 09:33:20;;;;;;;8.57;7.85;;;;;;;18.84;46.43;99866.66;10298463;28;20058;-68
2022/06/01 09:38:47;;;;;;;4.35;4.00;;;;;;;19.51;46.95;99869.06;10297688;28;20428;-68
2022/06/01 09:43:50;;;;;;;2.05;1.85;;;;;;;19.55;47.68;99883.88;10297528;28;20047;-68
2022/06/01 09:48:52;;;;;;;1.98;1.60;;;;;;;20.06;47.56;99884.63;10297690;28;20050;-69
2022/06/01 09:54:24;;;;;;;1.85;1.50;;;;;;;19.99;47.30;99878.03;10298503;28;20497;-69
2022/06/01 10:10:25;;;;;;;1.70;1.00;;;;;;;20.19;45.10;99879.25;10296435;28;20046;-69
2022/06/01 10:15:45;;;;;;;1.67;1.00;;;;;;;19.94;44.05;99868.66;10298896;28;20046;-68
2022/06/01 10:20:56;;;;;;;0.82;0.70;;;;;;;19.36;43.34;99868.34;10296168;28;20094;-68
2022/06/01 10:26:03;;;;;;;1.77;0.80;;;;;;;19.55;42.94;99866.06;10295149;28;20054;-68
2022/06/01 10:31:16;;;;;;;1.95;0.75;;;;;;;19.12;43.40;99878.91;10295421;28;20098;-69
2022/06/01 10:36:43;;;;;;;1.30;0.90;;;;;;;19.41;43.64;99871.53;10298257;28;20046;-68
2022/06/01 10:43:16;;;;;;;1.92;0.85;;;;;;;20.27;42.46;99866.16;10294980;28;20047;-69
2022/06/01 10:47:57;;;;;;;1.27;0.70;;;;;;;21.12;42.98;99856.13;10172296;29;20064;-69
2022/06/01 10:53:16;;;;;;;7.28;1.38;;;;;;;21.55;38.09;99850.06;10173499;29;20510;-68
2022/06/01 10:58:22;;;;;;;1.83;0.80;;;;;;;22.09;39.33;99837.66;10173315;29;20103;-69
2022/06/01 11:03:48;;;;;;;1.67;0.97;;;;;;;22.04;38.43;99826.47;10171943;29;20498;-69
2022/06/01 11:09:02;;;;;;;;;;;;;;;21.72;40.63;99826.44;10173248;29;20056;-70
2022/06/01 11:14:21;;;;;;;2.25;1.20;;;;;;;22.25;37.66;99826.56;10171774;29;20285;-69
2022/06/01 11:19:43;;;;;;;2.42;1.00;;;;;;;22.26;37.81;99828.25;10214584;28;20114;-68
2022/06/01 11:24:58;;;;;;;0.93;0.70;;;;;;;22.13;37.59;99823.94;10293698;28;20101;-69
2022/06/01 11:30:18;;;;;;;2.17;1.20;;;;;;;22.78;38.48;99815.78;10293833;28;20050;-69
2022/06/01 11:35:33;;;;;;;2.00;1.05;;;;;;;22.89;37.08;99816.63;10293860;28;20047;-69
2022/06/01 11:40:43;;;;;;;2.97;0.95;;;;;;;22.92;39.85;99816.31;10294348;28;20129;-69
2022/06/01 11:45:58;;;;;;;1.75;1.00;;;;;;;23.27;37.93;99809.72;10299934;28;20060;-69
2022/06/01 11:51:11;;;;;;;2.28;1.05;;;;;;;22.80;37.29;99800.41;10302462;28;20067;-70
2022/06/01 11:56:44;;;;;;;1.25;0.85;;;;;;;22.38;38.91;99789.75;10302057;28;20046;-69
2022/06/01 12:01:51;;;;;;;1.80;0.88;;;;;;;23.16;36.89;99783.03;10302840;28;20118;-70
2022/06/01 12:06:58;;;;;;;2.05;0.90;;;;;;;23.26;39.07;99785.72;10302179;28;20046;-70
2022/06/01 12:12:00;;;;;;;7.65;1.50;;;;;;;23.58;38.62;99769.44;10301463;28;20156;-70
2022/06/01 12:17:23;;;;;;;1.52;0.80;;;;;;;23.27;36.94;99774.00;10301308;28;20043;-69
2022/06/01 12:33:31;;;;;;;5.75;0.98;;;;;;;21.13;41.14;99760.75;10300792;28;20101;-69
2022/06/01 12:38:38;;;;;;;1.45;0.80;;;;;;;21.74;38.65;99749.59;10299229;28;20137;-70
2022/06/01 12:43:46;;;;;;;3.10;0.80;;;;;;;22.71;37.55;99747.63;10300246;28;20113;-69
2022/06/01 12:48:48;;;;;;;1.35;0.70;;;;;;;22.76;36.80;99750.78;10300341;28;20067;-70
2022/06/01 12:53:53;;;;;;;1.60;0.80;;;;;;;22.08;37.77;99745.78;10298895;28;20047;-70
2022/06/01 12:58:55;;;;;;;1.20;0.70;;;;;;;22.55;38.82;99746.28;10300186;28;20101;-70
2022/06/01 13:03:59;;;;;;;1.13;0.80;;;;;;;21.86;37.25;99740.53;10299940;28;20042;-70
2022/06/01 13:09:10;;;;;;;1.30;1.20;;;;;;;21.69;38.68;99736.59;10299387;28;20093;-69
2022/06/01 13:14:11;;;;;;;0.90;0.73;;;;;;;21.44;38.83;99739.59;10299641;28;20075;-69
2022/06/01 13:19:34;;;;;;;0.95;0.80;;;;;;;21.75;38.43;99748.63;10298953;28;20430;-69
2022/06/01 13:24:44;;;;;;;0.70;0.60;;;;;;;21.28;38.78;99746.13;10299099;28;20097;-69
2022/06/01 13:29:49;;;;;;;0.95;0.60;;;;;;;21.89;38.30;99738.47;10300367;28;20042;-69
2022/06/01 13:34:53;;;;;;;1.38;0.73;;;;;;;22.11;40.07;99723.28;10297494;28;20054;-69
2022/06/01 13:40:25;;;;;;;1.30;0.60;;;;;;;22.56;38.49;99729.22;10299219;28;20042;-69
2022/06/01 13:45:35;;;;;;;1.75;0.50;;;;;;;22.24;36.25;99729.31;10298342;28;20469;-68
2022/06/01 13:50:44;;;;;;;1.13;0.70;;;;;;;21.56;39.02;99728.75;10301498;28;20043;-69
2022/06/01 13:56:18;;;;;;;4.03;1.10;;;;;;;21.51;38.21;99735.44;10297808;28;20054;-69
2022/06/01 14:01:31;;;;;;;2.70;0.80;;;;;;;21.30;40.35;99735.34;10298189;28;20074;-70
2022/06/01 14:06:38;;;;;;;4.35;0.70;;;;;;;21.28;41.97;99727.44;10296944;28;20043;-70
2022/06/01 14:11:41;;;;;;;1.38;0.70;;;;;;;20.79;42.40;99733.19;10298875;28;20054;-70
2022/06/01 14:16:49;;;;;;;1.30;0.65;;;;;;;20.31;42.77;99736.00;10295847;28;20042;-70
2022/06/01 14:21:53;;;;;;;3.22;0.70;;;;;;;20.30;43.97;99751.16;10296324;28;20504;-69
2022/06/01 14:32:25;;;;;;;1.15;0.82;;;;;;;20.44;44.41;99759.94;10261531;28;20062;-69
2022/06/01 14:37:28;;;;;;;2.58;0.60;;;;;;;19.95;45.97;99758.31;10313374;23;20054;-70
2022/06/01 14:42:31;;;;;;;2.05;0.80;;;;;;;19.94;46.86;99757.47;10334078;28;20096;-70
2022/06/01 14:47:33;;;;;;;2.47;0.82;;;;;;;20.35;46.50;99753.47;10335249;28;20082;-69
2022/06/01 14:52:36;;;;;;;1.98;0.70;;;;;;;20.63;44.15;99761.09;10334793;28;20041;-69
2022/06/01 14:57:38;;;;;;;2.65;0.75;;;;;;;20.64;45.02;99757.47;10335832;28;20046;-70
2022/06/01 15:02:46;;;;;;;2.08;0.80;;;;;;;20.69;45.00;99762.44;10334569;28;20054;-69
2022/06/01 15:07:47;;;;;;;0.80;0.70;;;;;;;20.63;45.20;99760.25;10334949;28;20154;-69
2022/06/01 15:12:49;;;;;;;1.60;0.80;;;;;;;21.14;43.87;99747.25;10334211;28;20092;-69
2022/06/01 15:17:52;;;;;;;2.72;0.70;;;;;;;22.17;41.43;99739.69;10334477;28;20050;-69
2022/06/01 15:22:54;;;;;;;1.48;0.73;;;;;;;21.24;44.33;99743.84;10333702;28;20500;-69
2022/06/01 15:27:56;;;;;;;1.50;0.80;;;;;;;21.57;42.89;99751.00;10333619;28;20077;-69
2022/06/01 15:43:39;;;;;;;1.58;0.80;;;;;;;20.23;45.70;99751.72;10333705;28;20046;-70
2022/06/01 15:48:47;;;;;;;0.82;0.80;;;;;;;20.29;45.98;99743.28;10332022;28;20073;-69
2022/06/01 15:53:50;;;;;;;0.90;0.60;;;;;;;20.34;47.20;99751.78;10333133;28;20129;-70
2022/06/01 15:58:51;;;;;;;1.00;0.85;;;;;;;20.08;46.48;99757.28;10334340;28;20508;-69
2022/06/01 16:03:53;;;;;;;1.00;0.70;;;;;;;20.10;47.09;99758.03;10332965;28;20057;-70
2022/06/01 16:09:15;;;;;;;0.88;0.80;;;;;;;20.62;45.62;99747.84;10334167;28;20043;-70
2022/06/01 16:14:16;;;;;;;1.00;0.60;;;;;;;21.02;43.45;99747.38;10334402;28;20428;-69
2022/06/01 16:19:18;;;;;;;0.68;0.50;;;;;;;20.93;44.32;99759.66;10332958;28;20042;-68
2022/06/01 16:24:21;;;;;;;1.17;0.77;;;;;;;20.30;44.87;99752.97;10333776;28;20066;-69
2022/06/01 16:29:22;;;;;;;1.63;1.02;;;;;;;20.01;44.75;99761.41;10333689;28;20042;-69
2022/06/01 16:34:23;;;;;;;1.60;1.20;;;;;;;19.96;44.42;99766.19;10340398;28;20050;-69
2022/06/01 16:39:25;;;;;;;3.28;1.30;;;;;;;19.80;44.93;99758.50;10340035;28;20038;-69
2022/06/01 16:44:45;;;;;;;0.82;0.80;;;;;;;19.60;45.48;99781.28;10339660;28;20455;-68
2022/06/01 16:49:46;;;;;;;1.48;0.80;;;;;;;19.69;44.33;99779.78;10342800;28;20043;-69
2022/06/01 16:54:48;;;;;;;1.35;1.08;;;;;;;19.45;44.90;99763.72;10339014;28;20073;-69
2022/06/01 16:59:51;;;;;;;0.82;0.60;;;;;;;19.42;46.93;99790.59;10338913;28;20496;-69
2022/06/01 17:04:55;;;;;;;0.50;0.50;;;;;;;19.39;46.47;99789.03;10339726;28;20484;-69
2022/06/01 17:09:56;;;;;;;1.33;0.90;;;;;;;18.88;48.72;99773.13;10340649;28;20452;-69
2022/06/01 17:14:58;;;;;;;1.30;0.77;;;;;;;18.86;48.50;99772.38;10339535;28;20492;-69
2022/06/01 17:20:02;;;;;;;1.60;0.77;;;;;;;19.12;47.40;99775.88;10338874;28;20507;-68
2022/06/01 17:25:04;;;;;;;1.50;0.90;;;;;;;18.98;49.08;99777.78;10338086;28;20101;-68
2022/06/01 17:30:06;;;;;;;1.23;0.80;;;;;;;18.80;48.57;99790.59;10338189;28;20069;-68
2022/06/01 17:35:11;;;;;;;1.45;1.20;;;;;;;18.76;49.22;99789.94;10338324;28;20054;-69
2022/06/01 17:40:13;;;;;;;1.77;1.10;;;;;;;18.74;48.72;99781.22;10338001;28;20039;-69
2022/06/01 17:45:15;;;;;;;1.52;0.90;;;;;;;18.50;50.12;99783.72;10338690;28;20104;-68
2022/06/01 17:50:17;;;;;;;0.82;0.70;;;;;;;18.36;49.95;99791.78;10337827;28;20074;-68
2022/06/01 17:55:21;;;;;;;1.25;0.70;;;;;;;18.42;50.09;99804.72;10337135;28;20053;-68
2022/06/01 18:00:22;;;;;;;0.93;0.65;;;;;;;18.30;51.72;99806.38;10336819;28;20038;-68
2022/06/01 18:05:25;;;;;;;1.85;1.00;;;;;;;18.19;51.51;99811.56;10337017;28;20052;-68
2022/06/01 18:10:27;;;;;;;2.17;1.02;;;;;;;18.33;51.38;99813.31;10336310;28;20038;-68
2022/06/01 18:15:29;;;;;;;3.10;1.00;;;;;;;18.28;51.94;99802.97;10335855;28;20055;-68
2022/06/01 18:20:35;;;;;;;4.78;1.42;;;;;;;18.24;53.00;99811.25;10334479;28;20125;-68
2022/06/01 18:25:40;;;;;;;1.25;0.70;;;;;;;18.44;50.27;99804.59;10336133;28;20050;-68
2022/06/01 18:30:43;;;;;;;1.85;0.82;;;;;;;18.22;51.39;99818.50;10335890;28;20034;-68
2022/06/01 18:35:46;;;;;;;1.20;0.98;;;;;;;17.97;52.64;99822.75;10335750;28;20046;-68
2022/06/01 18:40:50;;;;;;;1.02;0.60;;;;;;;17.89;52.30;99827.75;10335301;28;20038;-68
2022/06/01 18:45:52;;;;;;;1.70;0.57;;;;;;;17.63;52.29;99824.09;10335144;28;20061;-68
2022/06/01 18:50:55;;;;;;;3.55;0.60;;;;;;;17.56;52.35;99823.59;10335076;28;20045;-68
2022/06/01 18:55:57;;;;;;;2.08;0.70;;;;;;;17.33;53.68;99832.19;10333238;28;20061;-68
2022/06/01 19:06:19;;;;;;;1.02;0.90;;;;;;;17.16;54.10;99841.22;10335417;28;20523;-69
2022/06/01 19:11:20;;;;;;;1.20;0.80;;;;;;;17.12;54.71;99843.19;10334489;28;20043;-69
2022/06/01 19:16:29;;;;;;;1.42;1.00;;;;;;;17.07;54.23;99847.09;10334329;28;20101;-69
2022/06/01 19:21:30;;;;;;;1.85;0.85;;;;;;;16.92;54.58;99846.25;10333269;28;20492;-69
2022/06/01 19:26:45;;;;;;;1.35;1.02;;;;;;;16.65;55.22;99844.28;10334652;28;20052;-69
2022/06/01 19:31:48;;;;;;;2.10;1.10;;;;;;;16.49;56.31;99840.81;10334287;28;20038;-69
2022/06/01 19:47:31;;;;;;;0.98;0.88;;;;;;;16.04;57.68;99858.47;10333342;28;20046;-69
2022/06/01 19:52:33;;;;;;;2.33;0.70;;;;;;;15.92;58.09;99869.75;10333425;28;20121;-70
2022/06/01 19:57:35;;;;;;;1.45;0.85;;;;;;;15.93;58.22;99876.75;10333410;28;20046;-69
2022/06/01 20:02:37;;;;;;;1.02;0.90;;;;;;;16.00;57.16;99886.09;10333899;28;20105;-68
2022/06/01 20:07:39;;;;;;;2.42;0.95;;;;;;;16.11;56.82;99883.69;10341738;28;20046;-68
2022/06/01 20:18:01;;;;;;;1.17;0.90;;;;;;;15.96;57.30;99884.53;10341580;28;20050;-69
2022/06/01 20:23:03;;;;;;;1.50;1.30;;;;;;;15.79;57.89;99906.69;10340700;28;20104;-69
2022/06/01 20:28:05;;;;;;;1.50;1.30;;;;;;;15.74;58.60;99922.00;10341239;28;20412;-69
2022/06/01 20:33:07;;;;;;;2.17;1.08;;;;;;;15.42;58.63;99938.75;10338933;28;20046;-71
2022/06/01 20:38:09;;;;;;;1.08;0.80;;;;;;;15.21;56.74;99969.84;10339039;28;20042;-70
2022/06/01 20:43:10;;;;;;;0.80;0.80;;;;;;;14.88;56.05;99978.59;10448549;22;20134;-68
2022/06/01 20:48:13;;;;;;;2.03;0.70;;;;;;;14.66;56.58;99984.09;10463810;28;20049;-69
2022/06/01 20:53:15;;;;;;;0.73;0.65;;;;;;;14.67;55.66;99982.31;10462924;28;20102;-67
2022/06/01 20:58:17;;;;;;;0.70;0.60;;;;;;;14.52;56.21;99965.38;10462467;28;20110;-70
2022/06/01 21:03:18;;;;;;;0.80;0.70;;;;;;;14.28;57.29;99965.63;10463797;28;20099;-69
2022/06/01 21:08:20;;;;;;;0.60;0.60;;;;;;;14.16;58.02;99995.28;10462895;28;20091;-69
2022/06/01 21:13:22;;;;;;;1.15;0.75;;;;;;;14.16;58.24;100005.84;10460838;28;20045;-69
2022/06/01 21:18:24;;;;;;;0.47;0.47;;;;;;;14.20;58.09;100014.50;10462638;28;20049;-69
2022/06/01 21:23:26;;;;;;;1.17;0.73;;;;;;;14.04;58.93;100015.22;10463363;28;20114;-69
2022/06/01 21:28:27;;;;;;;0.52;0.50;;;;;;;14.20;57.65;100028.56;10461806;28;20049;-68
2022/06/01 21:33:29;;;;;;;1.08;0.70;;;;;;;14.12;58.04;100033.34;10461378;28;20448;-69
2022/06/01 21:38:41;;;;;;;1.10;0.60;;;;;;;13.80;59.73;100025.13;10462446;28;20048;-69
2022/06/01 21:43:42;;;;;;;0.68;0.68;;;;;;;13.83;59.50;100040.84;10462595;28;20491;-68
2022/06/01 21:48:44;;;;;;;0.70;0.70;;;;;;;13.79;59.74;100043.69;10461971;28;20044;-68
2022/06/01 21:53:45;;;;;;;1.35;0.60;;;;;;;13.61;60.79;100038.31;10460623;28;20094;-68
2022/06/01 21:58:47;;;;;;;0.70;0.70;;;;;;;13.75;60.34;100039.47;10461976;28;20098;-68
2022/06/01 22:03:48;;;;;;;1.15;0.68;;;;;;;13.73;60.64;100042.19;10459750;28;20049;-68
2022/06/01 22:08:50;;;;;;;0.88;0.70;;;;;;;13.67;60.93;100049.50;10462315;28;20040;-68
2022/06/01 22:13:52;;;;;;;0.93;0.80;;;;;;;13.54;61.62;100044.75;10460054;28;20556;-69
2022/06/01 22:18:55;;;;;;;1.30;0.65;;;;;;;13.55;61.52;100056.22;10461299;28;20051;-68
2022/06/01 22:23:57;;;;;;;1.00;0.70;;;;;;;13.55;61.70;100059.72;10441950;28;20053;-68
2022/06/01 22:28:58;;;;;;;0.73;0.73;;;;;;;13.58;61.99;100067.47;10459776;28;20053;-68
2022/06/01 22:34:00;;;;;;;2.35;0.80;;;;;;;13.38;63.16;100070.13;10459227;28;20045;-69
2022/06/01 22:39:03;;;;;;;0.90;0.90;;;;;;;13.54;62.49;100072.97;10457888;28;20041;-69
2022/06/01 22:44:09;;;;;;;1.45;1.10;;;;;;;13.41;63.04;100074.41;10459172;28;20037;-68
2022/06/01 22:49:11;;;;;;;1.52;0.90;;;;;;;13.36;63.82;100078.09;10461120;28;20045;-68
2022/06/01 22:54:13;;;;;;;1.80;1.10;;;;;;;13.25;64.37;100082.13;10457648;28;20047;-69
2022/06/01 22:59:14;;;;;;;1.83;1.40;;;;;;;13.34;64.35;100093.16;10458158;28;20041;-69
2022/06/01 23:04:16;;;;;;;1.20;1.10;;;;;;;13.28;64.71;100092.53;10458197;28;20037;-69
2022/06/01 23:09:18;;;;;;;1.15;1.00;;;;;;;13.29;64.81;100094.28;10457956;28;20145;-69
2022/06/01 23:14:23;;;;;;;2.00;1.00;;;;;;;13.18;65.90;100086.75;10459354;28;20045;-69
2022/06/01 23:19:25;;;;;;;3.17;1.30;;;;;;;13.16;66.42;100088.63;10457196;28;20040;-69
2022/06/01 23:24:28;;;;;;;1.20;1.20;;;;;;;13.16;66.46;100095.69;10457158;28;20560;-69
2022/06/01 23:29:32;;;;;;;1.15;1.13;;;;;;;12.85;67.06;100096.94;10457558;28;20053;-69
2022/06/01 23:34:44;;;;;;;1.27;1.13;;;;;;;12.70;67.75;100102.81;10456661;28;20045;-69
2022/06/01 23:40:19;;;;;;;1.60;1.50;;;;;;;12.66;67.75;100117.03;10455503;28;20498;-69
2022/06/01 23:45:30;;;;;;;1.65;1.55;;;;;;;12.74;67.68;100104.41;10457762;28;20103;-69
2022/06/01 23:50:51;;;;;;;1.95;1.80;;;;;;;12.53;68.40;100128.06;10455158;28;20106;-72
2022/06/01 23:56:27;;;;;;;2.58;1.70;;;;;;;12.50;68.86;100127.31;10458661;28;20049;-72
